メインページ
METAR-TAF:

METAR-TAF

空港 :

サスカトゥーン, サスカチュワン州, カナダ

サスカトゥーン・ジョン・G・ディーフェンベーカー国際空港

緯度: 52-10N, 経度: 106-41W, 海抜: 501m

現時点の気象観測

当レポートは20分前の01:18(UTC)に作成
の風 9kt
気温 0°C
湿度 100%
気圧 1013 hPa
視程: 1.2km
高度400ftの曇り
小雪, 靄

METAR: CYXE 240118Z 10009KT 3/4SM R09/P6000FT/U -SN BR OVC004 00/M00 A2990 RMK SN2ST6 SLP154

時間: 19:38 (01:38 UTC)

予報

当レポートは1時間10分前の00:28(UTC)に作成
予報は24日の 00時(UTC)から 24日の 24時(UTC)まで有効
南東の風 12kt
視程: 1.6km
高度500ftの千切れ雲あり
高度1500ftの曇り
小雪, 靄
24日の 00時(UTC)から 24日の 04時(UTC)まで一時的に
視程: 4.8km
高度500ftの雲は散在している
高度1500ftの曇り
小雨, 雪
24日の 0400時(UTC)から
東/南東の風 12kt、最大22ktの突風を伴う
視程: 10km
高度500ftの曇り
24日の 04時(UTC)から 24日の 16時(UTC)まで一時的に
視程: 4.8km
高度500ftの雲は散在している
高度1000ftの曇り
小雪, 靄
24日の 1600時(UTC)から
の風 15kt
視程: 10km
高度2500ftの曇り
24日の 16時(UTC)から 24日の 24時(UTC)まで一時的に
視程: 8.0km
高度2000ftの曇り
小雪

TAF: CYXE 240028Z 2400/2424 13012KT 1SM -SN BR BKN005 OVC015 TEMPO 2400/2404 3SM -RASN SCT005 OVC015 FM240400 12012G22KT P6SM OVC005 TEMPO 2404/2416 3SM -SN BR SCT005 OVC010 FM241600 10015KT P6SM OVC025 TEMPO 2416/2424 5SM -SN OVC020 RMK NXT FCST BY 240600Z

4,000以上の空港の気象観測と天気予報(METAR報とTAF報)

利用可能な観測所は地図上に黄色い丸と赤い丸で示す。

丸の上にカーソルを重ねると観測所名を参照できる。

次にクリックすると気象観測と天気予報を参照できる。

マップの切り替え:黒色「×」印の緑ボタンをクリックして拡大、「-」印の緑ボタンをクリックして縮小、緑色の三角印をクリックして隣りの地図に切り替え


METAR-TAF: